Time;durP1;ratioP1;P1;durP2;ratioP2;P2;SDS_P1;SDS_P2;PMS_P1;PMS_P2;Temp;Humidity;BMP_temperature;BMP_pressure;BME280_temperature;BME280_humidity;BME280_pressure;Samples;Min_cycle;Max_cycle;Signal;HPM_P1;HPM_P2
2023/04/10 00:00:56;;;;;;;10.60;6.10;;;;;;;11.10;78.96;99948.90;79189;1299;3013658;-63
2023/04/10 00:03:23;;;;;;;10.40;6.10;;;;;;;10.92;79.44;99949.02;78114;1300;3052660;-63
2023/04/10 00:05:53;;;;;;;9.30;6.30;;;;;;;10.74;80.41;99952.26;79311;1296;3013727;-67
2023/04/10 00:08:23;;;;;;;7.60;4.10;;;;;;;10.65;81.02;99953.42;78691;1300;3011594;-66
2023/04/10 00:10:49;;;;;;;8.00;4.20;;;;;;;11.12;80.23;99947.39;79235;1297;3013658;-65
2023/04/10 00:13:26;;;;;;;8.80;4.60;;;;;;;11.66;78.29;99945.23;78008;1299;3049724;-61
2023/04/10 00:16:06;;;;;;;9.00;5.20;;;;;;;11.75;77.59;99949.98;77996;1296;3054470;-64
2023/04/10 00:18:34;;;;;;;8.70;4.70;;;;;;;11.62;77.72;99949.00;79257;1297;3013457;-62
2023/04/10 00:21:02;;;;;;;9.30;5.20;;;;;;;11.41;77.91;99948.06;79219;1300;3011590;-67
2023/04/10 00:23:50;;;;;;;7.80;5.10;;;;;;;11.17;78.60;99949.41;78046;1298;3068556;-59
2023/04/10 00:26:20;;;;;;;9.10;5.70;;;;;;;10.97;79.25;99948.73;79208;1297;3013554;-64
2023/04/10 00:28:49;;;;;;;10.00;6.00;;;;;;;10.83;79.78;99947.92;78844;1296;3012847;-59
2023/04/10 00:31:18;;;;;;;6.30;4.00;;;;;;;10.68;80.40;99954.84;79244;1298;3013713;-63
2023/04/10 00:33:59;;;;;;;7.80;4.30;;;;;;;11.17;79.58;99944.30;78016;1300;3053508;-63
2023/04/10 00:36:28;;;;;;;6.10;4.10;;;;;;;11.59;77.77;99941.65;79245;1300;3011846;-65
2023/04/10 00:38:58;;;;;;;7.10;5.20;;;;;;;11.65;77.60;99938.44;78739;1300;3011919;-66
2023/04/10 00:41:28;;;;;;;;;;;;;;;11.48;77.83;99937.66;79318;1300;3011714;-59
2023/04/10 00:43:57;;;;;;;8.70;5.30;;;;;;;11.18;78.49;99943.75;78181;1298;3068811;-64
2023/04/10 00:46:23;;;;;;;9.70;6.10;;;;;;;10.92;79.97;99942.87;79276;1297;3019268;-63
2023/04/10 00:48:53;;;;;;;11.60;6.10;;;;;;;10.73;80.69;99949.66;79213;1297;3013177;-63
2023/04/10 00:51:21;;;;;;;11.90;6.70;;;;;;;10.56;81.67;99952.16;78026;1300;3054539;-67
2023/04/10 00:53:53;;;;;;;8.90;4.10;;;;;;;10.49;82.12;99950.98;79338;1299;3013462;-64
2023/04/10 00:56:22;;;;;;;7.40;4.50;;;;;;;10.98;81.06;99947.11;78038;1300;3052478;-67
2023/04/10 00:58:49;;;;;;;7.30;5.30;;;;;;;11.39;79.25;99943.80;79321;1298;3013828;-65
2023/04/10 01:01:16;;;;;;;12.60;6.20;;;;;;;11.47;78.67;99941.39;79170;1297;3013146;-60
2023/04/10 01:03:46;;;;;;;10.20;6.40;;;;;;;11.32;79.05;99936.10;77981;1297;3049672;-63
2023/04/10 01:06:18;;;;;;;9.00;6.20;;;;;;;11.12;79.45;99941.63;79196;1300;3013195;-64
2023/04/10 01:09:06;;;;;;;9.60;6.20;;;;;;;10.89;79.97;99938.83;77978;1299;3052472;-64
2023/04/10 01:11:54;;;;;;;10.20;6.80;;;;;;;10.70;80.97;99941.95;78019;1299;3052369;-66
2023/04/10 01:14:36;;;;;;;11.80;6.30;;;;;;;10.51;81.83;99944.19;77977;1300;3071735;-64
2023/04/10 01:17:11;;;;;;;7.70;4.00;;;;;;;10.39;82.36;99940.08;77915;1297;3053018;-64
2023/04/10 01:19:59;;;;;;;7.80;4.30;;;;;;;11.04;81.18;99934.35;78623;1298;3013219;-64
2023/04/10 01:22:40;;;;;;;10.10;4.90;;;;;;;11.47;78.13;99926.16;78023;1296;3057230;-62
2023/04/10 01:25:23;;;;;;;10.20;5.80;;;;;;;11.44;78.07;99924.95;77971;1300;3050901;-63
2023/04/10 01:28:14;;;;;;;;;;;;;;;11.19;78.69;99917.23;77974;1300;3053933;-63
2023/04/10 01:30:42;;;;;;;9.10;6.50;;;;;;;10.91;79.85;99913.12;77774;1300;3051796;-67
2023/04/10 01:33:12;;;;;;;10.30;6.40;;;;;;;10.70;80.27;99913.73;79212;1300;3014834;-66
2023/04/10 01:35:42;;;;;;;10.90;6.80;;;;;;;10.56;80.91;99918.70;78683;1295;3011518;-64
2023/04/10 01:38:10;;;;;;;11.10;6.90;;;;;;;10.45;81.38;99922.45;79288;1300;3016080;-59
2023/04/10 01:40:38;;;;;;;6.20;4.00;;;;;;;10.30;81.89;99921.27;79319;1295;3013198;-61
2023/04/10 01:43:19;;;;;;;6.60;4.50;;;;;;;10.80;80.93;99918.63;77972;1300;3048350;-63
2023/04/10 01:45:50;;;;;;;8.10;5.50;;;;;;;11.21;79.09;99915.67;79156;1300;3011618;-63
2023/04/10 01:48:19;;;;;;;9.90;5.90;;;;;;;11.23;78.81;99912.44;77919;1300;3025252;-60
2023/04/10 01:50:46;;;;;;;9.10;6.60;;;;;;;11.11;79.45;99912.38;79246;1300;3013362;-65
2023/04/10 01:53:12;;;;;;;12.50;7.10;;;;;;;10.90;79.72;99912.50;79189;1300;3011901;-64
2023/04/10 01:55:41;;;;;;;11.20;7.40;;;;;;;10.66;80.39;99911.52;77870;1301;3051647;-62
2023/04/10 01:58:10;;;;;;;13.80;7.50;;;;;;;10.44;81.28;99914.44;79228;1294;3013086;-64
2023/04/10 02:00:41;;;;;;;12.00;7.40;;;;;;;10.26;81.90;99914.11;78750;1299;3013779;-65
2023/04/10 02:03:10;;;;;;;7.10;4.70;;;;;;;10.10;82.71;99913.34;79271;1296;3013008;-64
2023/04/10 02:06:01;;;;;;;6.30;4.30;;;;;;;10.59;81.70;99909.94;78051;1299;3025763;-62
2023/04/10 02:08:49;;;;;;;9.20;4.90;;;;;;;11.15;79.87;99904.98;78057;1299;3052608;-61
2023/04/10 02:11:28;;;;;;;9.30;6.10;;;;;;;11.13;79.39;99905.47;77952;1300;3052314;-62
2023/04/10 02:13:58;;;;;;;10.20;5.70;;;;;;;10.90;79.57;99907.08;77943;1296;3068780;-66
2023/04/10 02:16:26;;;;;;;11.70;7.00;;;;;;;10.72;80.61;99901.56;79287;1298;3011304;-64
2023/04/10 02:18:54;;;;;;;11.40;7.20;;;;;;;10.56;81.03;99904.50;77926;1300;3028968;-66
2023/04/10 02:21:26;;;;;;;11.80;6.90;;;;;;;10.34;81.70;99906.20;79231;1295;3013357;-67
2023/04/10 02:23:56;;;;;;;12.90;7.90;;;;;;;10.19;82.42;99909.60;77954;1302;3054526;-64
2023/04/10 02:26:22;;;;;;;6.80;4.20;;;;;;;10.16;82.87;99909.18;79236;1299;3013358;-64
2023/04/10 02:28:50;;;;;;;12.10;5.20;;;;;;;10.61;81.42;99906.15;79370;1296;3013033;-65
2023/04/10 02:31:19;;;;;;;12.40;5.50;;;;;;;11.08;79.65;99907.31;77984;1299;3068559;-65
2023/04/10 02:33:47;;;;;;;8.00;5.40;;;;;;;11.08;79.22;99907.48;79242;1294;3013251;-64
2023/04/10 02:36:13;;;;;;;8.60;6.00;;;;;;;10.93;79.62;99909.52;79234;1295;3011994;-63
2023/04/10 02:38:44;;;;;;;11.90;6.50;;;;;;;10.76;80.31;99907.98;78021;1300;3053468;-60
2023/04/10 02:41:11;;;;;;;10.30;7.10;;;;;;;10.60;80.71;99910.23;79218;1300;3013529;-66
2023/04/10 02:43:40;;;;;;;12.30;6.50;;;;;;;10.39;81.49;99911.38;79330;1299;3013637;-63
2023/04/10 02:46:08;;;;;;;13.20;7.50;;;;;;;10.29;82.02;99907.45;78075;1297;3068557;-64
2023/04/10 02:48:44;;;;;;;5.70;3.80;;;;;;;10.18;82.44;99906.29;78703;1294;3011881;-63
2023/04/10 02:51:12;;;;;;;8.10;5.20;;;;;;;10.69;81.44;99901.50;79238;1294;3014841;-67
2023/04/10 02:53:40;;;;;;;9.60;5.00;;;;;;;11.22;79.42;99897.08;79279;1294;3013212;-63
2023/04/10 02:56:10;;;;;;;7.90;4.60;;;;;;;11.29;78.72;99895.97;77993;1299;3053207;-61
2023/04/10 02:58:38;;;;;;;12.10;6.10;;;;;;;11.24;78.89;99896.08;79273;1299;3013237;-65
2023/04/10 03:01:07;;;;;;;13.20;6.40;;;;;;;11.11;79.23;99897.98;78705;1298;3011557;-64
2023/04/10 03:03:47;;;;;;;8.30;5.80;;;;;;;10.94;79.22;99901.93;78010;1299;3053371;-63
2023/04/10 03:06:25;;;;;;;8.80;6.30;;;;;;;10.74;79.54;99901.10;78006;1299;3068068;-65
2023/04/10 03:08:52;;;;;;;8.30;6.40;;;;;;;10.58;80.02;99903.34;79233;1297;3012779;-62
2023/04/10 03:11:22;;;;;;;7.40;4.20;;;;;;;10.48;80.54;99905.11;78034;1297;3028868;-62
2023/04/10 03:13:57;;;;;;;5.90;3.80;;;;;;;10.96;79.61;99903.02;78714;1298;3013137;-61
2023/04/10 03:16:24;;;;;;;7.00;4.70;;;;;;;11.51;77.90;99904.52;79302;1294;3013436;-64
2023/04/10 03:18:54;;;;;;;9.70;6.00;;;;;;;11.63;77.10;99901.56;79232;1295;3013292;-60
2023/04/10 03:21:23;;;;;;;9.80;5.60;;;;;;;11.42;76.63;99904.67;78094;1295;3053007;-64
2023/04/10 03:23:50;;;;;;;10.70;5.90;;;;;;;11.24;77.65;99905.20;79282;1299;3013233;-62
2023/04/10 03:26:16;;;;;;;9.50;6.30;;;;;;;11.09;78.10;99911.82;79197;1300;3011641;-65
2023/04/10 03:28:45;;;;;;;10.30;6.50;;;;;;;10.86;78.41;99913.20;77992;1300;3027558;-65
2023/04/10 03:31:12;;;;;;;11.90;6.90;;;;;;;10.64;79.45;99913.02;79238;1295;3019105;-63
2023/04/10 03:33:43;;;;;;;8.90;5.00;;;;;;;10.44;80.66;99920.90;78019;1299;3050455;-65
2023/04/10 03:36:10;;;;;;;9.30;4.40;;;;;;;10.80;80.15;99913.90;79381;1299;3013661;-65
2023/04/10 03:38:39;;;;;;;8.90;4.80;;;;;;;11.34;78.38;99908.45;79177;1300;3011734;-65
2023/04/10 03:41:12;;;;;;;6.10;4.80;;;;;;;11.44;77.68;99912.98;78022;1299;3050565;-63
2023/04/10 03:43:41;;;;;;;10.00;7.00;;;;;;;11.26;77.80;99907.52;79430;1295;3012878;-64
2023/04/10 03:46:08;;;;;;;10.00;5.90;;;;;;;11.02;78.20;99911.46;79249;1300;3013415;-62
2023/04/10 03:48:41;;;;;;;11.70;6.40;;;;;;;10.91;79.20;99913.11;77989;1300;3050019;-64
2023/04/10 03:51:07;;;;;;;12.10;6.90;;;;;;;10.77;79.51;99915.66;79276;1300;3013778;-62
2023/04/10 03:53:36;;;;;;;12.80;7.20;;;;;;;10.64;79.92;99918.10;79162;1295;3011953;-64
2023/04/10 03:56:07;;;;;;;13.00;6.90;;;;;;;10.53;80.43;99922.69;78109;1300;3051855;-64
2023/04/10 03:58:35;;;;;;;9.70;4.90;;;;;;;10.40;81.04;99924.77;79397;1294;3011823;-66
2023/04/10 04:01:04;;;;;;;10.70;5.50;;;;;;;10.90;80.05;99924.75;79279;1294;3011474;-63
2023/04/10 04:03:51;;;;;;;7.90;5.40;;;;;;;11.51;77.64;99922.45;77950;1297;3049603;-65
2023/04/10 04:06:39;;;;;;;13.00;5.60;;;;;;;11.62;77.29;99927.44;77848;1300;3052505;-64
2023/04/10 04:09:15;;;;;;;10.70;6.80;;;;;;;11.50;77.13;99928.11;78009;1300;3052515;-61
2023/04/10 04:11:52;;;;;;;14.10;8.50;;;;;;;11.32;77.42;99931.36;78082;1297;3069231;-65
2023/04/10 04:14:39;;;;;;;10.20;6.30;;;;;;;11.15;77.84;99931.96;78059;1299;3051801;-61
2023/04/10 04:17:40;;;;;;;13.70;7.80;;;;;;;11.03;78.07;99932.14;77920;1300;3056878;-63
2023/04/10 04:20:12;;;;;;;15.80;7.20;;;;;;;10.92;78.75;99932.38;79248;1294;3011703;-61
2023/04/10 04:23:08;;;;;;;9.40;4.60;;;;;;;10.86;79.14;99931.13;78068;1299;3054537;-66
2023/04/10 04:25:45;;;;;;;11.90;5.50;;;;;;;11.50;77.24;99929.83;78644;1295;3013046;-65
2023/04/10 04:28:32;;;;;;;12.80;5.90;;;;;;;12.16;75.46;99928.84;77964;1299;3050328;-63
2023/04/10 04:31:19;;;;;;;13.40;6.70;;;;;;;12.19;74.33;99932.04;77907;1300;3053331;-64
2023/04/10 04:34:13;;;;;;;15.00;7.40;;;;;;;12.08;74.28;99933.73;78108;1297;3052955;-59
2023/04/10 04:37:01;;;;;;;13.30;8.30;;;;;;;11.87;74.56;99936.64;77949;1297;3069165;-65
2023/04/10 04:39:39;;;;;;;17.30;8.30;;;;;;;11.72;74.78;99935.99;78016;1295;3052623;-64
2023/04/10 04:42:33;;;;;;;13.70;8.50;;;;;;;11.57;75.40;99938.07;77917;1297;3057162;-63
2023/04/10 04:45:10;;;;;;;14.50;8.10;;;;;;;11.46;75.45;99939.91;77917;1300;3048812;-64
2023/04/10 04:48:02;;;;;;;14.90;8.70;;;;;;;11.38;75.54;99938.78;77903;1300;3053765;-64
2023/04/10 04:50:52;;;;;;;14.60;8.90;;;;;;;11.31;75.63;99936.55;77764;1298;3050770;-66
2023/04/10 04:53:39;;;;;;;8.50;5.10;;;;;;;11.28;75.94;99938.30;77973;1300;3052655;-65
2023/04/10 04:56:15;;;;;;;12.50;6.10;;;;;;;11.93;74.12;99939.18;77940;1297;3052363;-64
2023/04/10 04:58:52;;;;;;;12.10;7.00;;;;;;;12.41;72.07;99939.11;77955;1300;3070030;-64
2023/04/10 05:01:40;;;;;;;14.10;7.40;;;;;;;12.47;71.68;99938.74;77928;1304;3052590;-69
2023/04/10 05:04:19;;;;;;;15.20;9.00;;;;;;;12.39;71.72;99938.91;77906;1297;3059176;-64
2023/04/10 05:07:06;;;;;;;15.00;9.40;;;;;;;12.10;72.24;99936.73;77976;1299;3049333;-69
2023/04/10 05:09:46;;;;;;;19.00;9.40;;;;;;;11.85;72.53;99934.84;78006;1300;3053187;-66
2023/04/10 05:12:35;;;;;;;19.10;9.90;;;;;;;11.70;73.14;99937.98;77727;1300;3051243;-61
2023/04/10 05:15:30;;;;;;;15.30;9.60;;;;;;;11.59;73.43;99934.59;78056;1300;3052764;-61
2023/04/10 05:18:22;;;;;;;19.80;11.00;;;;;;;11.49;73.59;99932.52;77865;1306;3054281;-65
2023/04/10 05:20:57;;;;;;;22.10;10.50;;;;;;;11.45;73.79;99932.10;78715;1298;3011844;-64
2023/04/10 05:23:44;;;;;;;17.40;9.70;;;;;;;11.41;73.45;99926.65;77920;1300;3069581;-63
2023/04/10 05:26:20;;;;;;;19.10;10.20;;;;;;;11.34;72.28;99928.33;77965;1295;3050679;-65
2023/04/10 05:28:56;;;;;;;17.50;9.80;;;;;;;11.25;72.67;99928.25;78727;1295;3011736;-65
2023/04/10 05:31:38;;;;;;;15.60;9.70;;;;;;;11.21;72.93;99928.29;78088;1299;3057033;-63
2023/04/10 05:34:16;;;;;;;17.20;9.10;;;;;;;11.25;71.70;99930.21;78081;1294;3050271;-64
2023/04/10 05:37:10;;;;;;;19.50;9.90;;;;;;;11.27;70.89;99929.73;78187;1297;3053892;-65
2023/04/10 05:39:52;;;;;;;16.80;9.80;;;;;;;11.33;70.78;99927.81;78283;1300;3050568;-64
2023/04/10 05:42:36;;;;;;;14.10;9.80;;;;;;;11.35;70.41;99928.79;78074;1300;3052627;-65
2023/04/10 05:45:17;;;;;;;16.20;9.80;;;;;;;11.36;70.55;99927.98;78186;1299;3051957;-64
2023/04/10 05:47:58;;;;;;;15.90;9.50;;;;;;;11.38;70.10;99930.73;77987;1300;3068717;-63
2023/04/10 05:50:29;;;;;;;16.30;9.20;;;;;;;11.39;69.82;99931.70;79189;1300;3011918;-64
2023/04/10 05:53:13;;;;;;;17.50;9.10;;;;;;;11.45;69.21;99936.48;78209;1300;3056838;-62
2023/04/10 05:56:00;;;;;;;15.80;8.80;;;;;;;11.52;69.32;99937.95;78233;1299;3049999;-61
2023/04/10 05:58:56;;;;;;;13.60;9.20;;;;;;;11.55;68.49;99944.09;77969;1297;3053492;-62
2023/04/10 06:01:43;;;;;;;19.00;9.00;;;;;;;11.56;68.15;99947.23;77911;1300;3050488;-62
2023/04/10 06:04:10;;;;;;;18.60;9.40;;;;;;;11.53;67.29;99950.87;79339;1300;3018930;-62
2023/04/10 06:06:38;;;;;;;16.40;9.20;;;;;;;11.56;67.80;99957.55;79182;1298;3012931;-63
2023/04/10 06:09:06;;;;;;;16.70;9.50;;;;;;;11.52;67.49;99957.98;77993;1297;3051718;-64
2023/04/10 06:11:34;;;;;;;21.10;9.00;;;;;;;11.44;67.81;99959.67;79468;1297;3013387;-63
2023/04/10 06:14:01;;;;;;;16.30;8.70;;;;;;;11.41;67.77;99959.64;79138;1300;3013880;-67
2023/04/10 06:16:42;;;;;;;14.40;9.20;;;;;;;11.42;66.96;99958.54;77868;1297;3050517;-64
2023/04/10 06:19:09;;;;;;;15.10;8.00;;;;;;;11.52;66.87;99962.35;79273;1300;3012744;-63
2023/04/10 06:21:36;;;;;;;13.90;7.90;;;;;;;11.60;66.11;99960.52;79335;1296;3013694;-65
2023/04/10 06:24:06;;;;;;;12.80;7.50;;;;;;;11.66;66.20;99966.11;76175;1300;3052054;-64
2023/04/10 06:26:33;;;;;;;19.40;7.90;;;;;;;11.81;65.41;99967.05;79201;1297;3013599;-66
2023/04/10 06:29:00;;;;;;;18.00;8.20;;;;;;;11.90;65.52;99966.33;79248;1297;3011499;-65
2023/04/10 06:31:32;;;;;;;13.50;7.60;;;;;;;11.87;65.06;99967.89;77937;1300;3050296;-66
2023/04/10 06:33:59;;;;;;;14.30;6.90;;;;;;;11.99;64.31;99966.20;79286;1300;3011735;-64
2023/04/10 06:36:28;;;;;;;12.20;7.20;;;;;;;12.06;63.56;99968.38;78808;1297;3013223;-64
2023/04/10 06:39:05;;;;;;;12.90;7.20;;;;;;;12.16;63.73;99967.52;78716;1300;3011715;-63
2023/04/10 06:41:32;;;;;;;19.70;7.80;;;;;;;12.18;63.24;99964.72;79302;1300;3011815;-64
2023/04/10 06:44:09;;;;;;;14.50;7.20;;;;;;;12.24;63.05;99971.25;78108;1300;3051900;-63
2023/04/10 06:46:36;;;;;;;11.10;6.30;;;;;;;12.29;62.56;99970.06;79386;1298;3019161;-63
2023/04/10 06:49:02;;;;;;;13.40;6.40;;;;;;;12.37;61.96;99967.43;79374;1298;3013131;-66
2023/04/10 06:51:31;;;;;;;10.50;5.60;;;;;;;12.43;61.34;99964.64;77997;1300;3026081;-63
2023/04/10 06:53:57;;;;;;;12.10;5.70;;;;;;;12.46;60.48;99966.06;79401;1298;3012819;-65
2023/04/10 06:56:25;;;;;;;10.40;5.50;;;;;;;12.59;60.12;99964.39;79373;1298;3012300;-64
2023/04/10 06:58:57;;;;;;;9.70;5.40;;;;;;;12.75;59.79;99966.57;78089;1295;3051562;-64
2023/04/10 07:01:24;;;;;;;10.60;5.10;;;;;;;12.84;58.91;99969.39;79304;1295;3021170;-65
2023/04/10 07:03:50;;;;;;;9.30;5.60;;;;;;;12.91;58.28;99970.15;79239;1296;3011761;-63
2023/04/10 07:06:20;;;;;;;11.80;4.90;;;;;;;12.92;57.63;99965.50;78195;1298;3050053;-61
2023/04/10 07:08:56;;;;;;;11.10;4.40;;;;;;;12.96;57.04;99967.36;77886;1300;3051993;-65
2023/04/10 07:11:23;;;;;;;10.50;5.20;;;;;;;13.01;57.27;99965.48;79222;1300;3015928;-66
2023/04/10 07:13:52;;;;;;;10.30;4.80;;;;;;;13.11;56.76;99963.09;79341;1296;3013067;-63
2023/04/10 07:16:21;;;;;;;6.80;4.30;;;;;;;13.23;56.86;99960.75;78108;1297;3056469;-66
2023/04/10 07:18:50;;;;;;;10.20;3.40;;;;;;;13.31;55.53;99962.36;79552;1295;3013660;-67
2023/04/10 07:21:16;;;;;;;5.20;3.20;;;;;;;13.39;54.56;99956.44;79309;1295;3011362;-65
2023/04/10 07:23:52;;;;;;;4.20;3.20;;;;;;;13.51;54.51;99950.20;78481;1300;3054320;-64
2023/04/10 07:26:20;;;;;;;8.50;3.50;;;;;;;13.57;52.78;99948.25;79401;1300;3012911;-64
2023/04/10 07:28:46;;;;;;;7.00;3.80;;;;;;;13.63;52.25;99947.73;79505;1294;3011597;-65
2023/04/10 07:31:18;;;;;;;7.10;3.40;;;;;;;13.65;51.11;99949.16;78249;1295;3056670;-62
2023/04/10 07:33:45;;;;;;;7.00;2.70;;;;;;;13.61;50.96;99946.39;79625;1299;3013663;-64
2023/04/10 07:36:12;;;;;;;7.80;2.90;;;;;;;13.62;50.06;99943.02;79709;1300;3013883;-65
2023/04/10 07:38:41;;;;;;;4.30;2.60;;;;;;;13.64;49.30;99944.42;78504;1300;3026694;-63
2023/04/10 07:41:09;;;;;;;7.80;2.50;;;;;;;13.61;49.12;99943.24;79277;1298;3013843;-62
2023/04/10 07:43:38;;;;;;;11.30;3.60;;;;;;;13.60;49.38;99941.36;78987;1296;3011806;-63
2023/04/10 07:46:06;;;;;;;8.50;2.90;;;;;;;13.71;49.05;99944.52;79339;1295;3020808;-62
2023/04/10 07:48:32;;;;;;;5.20;2.80;;;;;;;13.82;48.99;99943.41;79278;1298;3013083;-65
2023/04/10 07:51:03;;;;;;;4.70;2.70;;;;;;;13.97;48.59;99941.40;78157;1298;3053360;-65
2023/04/10 07:53:30;;;;;;;3.70;2.70;;;;;;;14.02;48.08;99939.09;79426;1298;3013739;-63
2023/04/10 07:55:56;;;;;;;7.70;2.70;;;;;;;14.07;48.58;99934.21;79373;1298;3011587;-64
2023/04/10 07:58:25;;;;;;;5.90;3.30;;;;;;;13.99;48.30;99932.80;78131;1298;3069170;-65
2023/04/10 08:00:51;;;;;;;7.30;3.10;;;;;;;14.07;48.58;99932.62;79476;1294;3019007;-62
2023/04/10 08:03:18;;;;;;;7.80;3.00;;;;;;;14.00;48.67;99927.77;79301;1298;3013678;-64
2023/04/10 08:05:46;;;;;;;8.10;3.10;;;;;;;14.15;48.48;99924.11;78178;1298;3026391;-64
2023/04/10 08:08:14;;;;;;;13.10;3.20;;;;;;;14.31;48.45;99923.95;79230;1300;3020494;-61
2023/04/10 08:10:45;;;;;;;6.40;2.90;;;;;;;14.44;47.92;99920.40;78855;1295;3012051;-63
2023/04/10 08:13:12;;;;;;;7.80;3.30;;;;;;;14.46;48.19;99916.77;79302;1298;3013898;-62
2023/04/10 08:15:39;;;;;;;10.20;2.90;;;;;;;14.52;47.34;99916.69;79172;1294;3011633;-64
2023/04/10 08:18:10;;;;;;;9.90;3.40;;;;;;;14.59;47.52;99908.93;78095;1298;3056679;-62
2023/04/10 08:20:36;;;;;;;7.30;3.20;;;;;;;14.55;46.81;99910.47;79323;1298;3013313;-63
2023/04/10 08:23:04;;;;;;;5.80;2.80;;;;;;;14.58;46.92;99908.67;79213;1300;3011594;-63
2023/04/10 08:25:32;;;;;;;7.60;2.60;;;;;;;14.62;46.96;99907.18;78107;1300;3053417;-61
2023/04/10 08:27:59;;;;;;;5.40;2.80;;;;;;;14.66;47.33;99900.75;79318;1297;3019186;-63
2023/04/10 08:30:26;;;;;;;4.50;2.90;;;;;;;14.62;47.34;99900.67;79583;1294;3012909;-65
2023/04/10 08:32:55;;;;;;;12.00;3.20;;;;;;;14.61;47.21;99895.57;78076;1295;3026177;-63
2023/04/10 08:39:06;;;;;;;7.50;3.10;;;;;;;14.76;46.15;99892.42;77882;1301;3050144;-63
2023/04/10 08:41:33;;;;;;;5.90;2.50;;;;;;;14.81;46.31;99889.48;79174;1302;3012133;-66
2023/04/10 08:44:00;;;;;;;11.70;2.70;;;;;;;15.01;45.97;99882.02;79109;1300;3011664;-67
2023/04/10 08:46:29;;;;;;;6.00;2.40;;;;;;;15.04;45.70;99879.89;77911;1303;3051146;-66
2023/04/10 08:49:03;;;;;;;3.50;2.40;;;;;;;15.15;45.37;99881.92;79330;1298;3011928;-65
2023/04/10 08:51:37;;;;;;;5.80;2.70;;;;;;;14.96;44.60;99882.52;78012;1304;3048631;-66
2023/04/10 08:54:06;;;;;;;9.40;2.70;;;;;;;15.01;44.97;99880.60;79276;1298;3011616;-67
2023/04/10 08:56:35;;;;;;;5.00;2.80;;;;;;;15.12;44.95;99870.27;78104;1304;3048811;-64
2023/04/10 08:59:02;;;;;;;4.90;3.00;;;;;;;15.19;44.99;99871.34;79231;1301;3013231;-67
2023/04/10 09:01:29;;;;;;;7.90;2.90;;;;;;;15.24;44.83;99869.04;79385;1300;3011434;-66
2023/04/10 09:03:57;;;;;;;5.60;2.40;;;;;;;15.30;45.10;99865.77;77913;1304;3026276;-67
2023/04/10 09:06:24;;;;;;;5.20;3.00;;;;;;;15.38;44.72;99862.39;79084;1299;3013262;-65
2023/04/10 09:08:58;;;;;;;5.30;2.40;;;;;;;15.46;44.18;99866.57;77828;1304;3053557;-64
2023/04/10 09:11:51;;;;;;;6.60;2.50;;;;;;;15.59;43.96;99861.20;79095;1303;3013236;-65
2023/04/10 09:14:21;;;;;;;10.70;2.70;;;;;;;15.65;43.79;99863.88;77832;1303;3052350;-67
2023/04/10 09:16:50;;;;;;;8.70;2.70;;;;;;;15.58;43.56;99861.42;79055;1303;3011738;-65
2023/04/10 09:19:29;;;;;;;8.50;2.80;;;;;;;15.51;43.08;99863.75;77836;1304;3067912;-64
2023/04/10 09:21:57;;;;;;;5.90;2.70;;;;;;;15.64;42.95;99862.92;77752;1303;3051855;-63
2023/04/10 09:24:24;;;;;;;5.30;2.20;;;;;;;15.69;42.67;99852.85;79013;1300;3018525;-64
2023/04/10 09:26:53;;;;;;;5.50;2.50;;;;;;;15.68;42.79;99849.71;79029;1301;3012037;-67
2023/04/10 09:29:21;;;;;;;7.50;3.00;;;;;;;15.73;42.93;99850.58;77908;1301;3048745;-65
2023/04/10 09:31:50;;;;;;;4.30;2.50;;;;;;;15.69;42.75;99841.48;78975;1300;3012945;-61
2023/04/10 09:34:21;;;;;;;3.80;2.10;;;;;;;15.77;42.88;99844.45;79075;1300;3013488;-61
2023/04/10 09:36:54;;;;;;;2.90;1.90;;;;;;;15.79;42.53;99843.42;77915;1300;3052084;-65
2023/04/10 09:39:39;;;;;;;7.00;2.50;;;;;;;15.97;41.97;99841.02;77686;1304;3056754;-65
2023/04/10 09:42:08;;;;;;;4.80;2.40;;;;;;;16.05;42.21;99840.02;77841;1303;3050449;-64
2023/04/10 09:44:39;;;;;;;8.50;2.70;;;;;;;16.10;41.60;99834.90;79123;1301;3013500;-63
2023/04/10 09:47:19;;;;;;;7.90;2.20;;;;;;;16.15;41.43;99832.94;77814;1300;3051660;-66
2023/04/10 09:49:55;;;;;;;9.70;2.70;;;;;;;16.20;41.14;99830.21;77717;1300;3051737;-62
2023/04/10 09:52:31;;;;;;;5.80;2.40;;;;;;;16.16;41.51;99828.98;77774;1301;3069928;-64
2023/04/10 09:55:08;;;;;;;6.10;2.20;;;;;;;16.26;41.33;99824.81;79057;1300;3011868;-65
2023/04/10 09:57:36;;;;;;;6.30;2.70;;;;;;;16.37;41.35;99819.71;77667;1304;3055837;-64
2023/04/10 10:00:09;;;;;;;5.70;2.50;;;;;;;16.32;41.45;99822.90;78971;1301;3011814;-63
2023/04/10 10:02:39;;;;;;;8.30;2.60;;;;;;;16.35;41.74;99815.23;77967;1301;3052919;-63
2023/04/10 10:05:06;;;;;;;6.90;2.30;;;;;;;16.34;41.02;99814.48;79451;1303;3013469;-61
2023/04/10 10:07:43;;;;;;;6.40;2.00;;;;;;;16.53;40.19;99809.42;77913;1304;3053825;-61
2023/04/10 10:10:11;;;;;;;3.90;2.10;;;;;;;16.50;40.51;99809.14;79087;1303;3012868;-63
2023/04/10 10:12:59;;;;;;;5.50;2.40;;;;;;;16.53;40.31;99810.64;79007;1299;3011658;-66
2023/04/10 10:15:35;;;;;;;6.30;2.20;;;;;;;16.55;40.50;99807.71;77873;1303;3049014;-68
2023/04/10 10:18:42;;;;;;;4.00;2.20;;;;;;;16.56;40.66;99806.92;78578;1300;3013920;-61
2023/04/10 10:21:10;;;;;;;13.30;2.30;;;;;;;16.66;40.86;99805.18;77732;1300;3053101;-62
2023/04/10 10:23:47;;;;;;;4.50;2.40;;;;;;;16.90;40.28;99806.27;78507;1304;3011759;-64
2023/04/10 10:26:14;;;;;;;6.80;2.60;;;;;;;16.78;40.39;99800.35;79119;1303;3014446;-64
2023/04/10 10:28:43;;;;;;;10.70;2.30;;;;;;;16.85;40.37;99797.64;79169;1304;3011764;-64
2023/04/10 10:31:13;;;;;;;3.70;2.00;;;;;;;16.97;40.04;99797.26;77842;1299;3069561;-63
2023/04/10 10:33:40;;;;;;;9.70;2.80;;;;;;;16.86;40.19;99794.73;79142;1298;3013976;-65
2023/04/10 10:36:07;;;;;;;7.40;2.30;;;;;;;17.00;40.12;99792.42;79096;1303;3012978;-62
2023/04/10 10:38:38;;;;;;;9.30;2.40;;;;;;;16.95;40.02;99790.20;77948;1303;3052733;-63
2023/04/10 10:41:12;;;;;;;8.40;2.20;;;;;;;17.18;40.27;99787.92;79107;1302;3013541;-60
2023/04/10 10:44:01;;;;;;;5.10;2.30;;;;;;;17.44;38.64;99784.16;77863;1302;3052187;-65
2023/04/10 10:46:46;;;;;;;4.50;2.00;;;;;;;17.53;38.41;99782.31;77869;1298;3052190;-61
2023/04/10 10:49:15;;;;;;;4.00;2.20;;;;;;;17.66;37.82;99780.36;77884;1304;3069209;-61
2023/04/10 10:51:50;;;;;;;3.30;2.00;;;;;;;17.77;37.38;99780.33;79134;1298;3011748;-63
2023/04/10 10:54:32;;;;;;;4.70;2.00;;;;;;;17.92;36.42;99773.02;77905;1304;3056871;-65
2023/04/10 10:57:08;;;;;;;3.10;1.90;;;;;;;17.95;36.01;99768.00;77841;1298;3050185;-64
2023/04/10 10:59:47;;;;;;;4.30;2.40;;;;;;;17.83;36.10;99769.16;79055;1298;3013220;-63
2023/04/10 11:02:16;;;;;;;4.40;2.40;;;;;;;17.80;35.58;99772.23;77855;1302;3049437;-63
2023/04/10 11:04:44;;;;;;;5.50;2.00;;;;;;;17.95;35.43;99766.73;79176;1301;3012937;-63
2023/04/10 11:07:14;;;;;;;6.80;1.90;;;;;;;18.13;36.05;99761.14;78600;1301;3011792;-65
2023/04/10 11:09:55;;;;;;;5.90;1.80;;;;;;;18.26;34.81;99756.60;79392;1301;3011581;-64
2023/04/10 11:12:26;;;;;;;6.60;2.60;;;;;;;18.01;35.28;99764.09;77865;1301;3056741;-66
2023/04/10 11:14:57;;;;;;;4.20;2.00;;;;;;;18.07;35.19;99757.97;79016;1300;3013107;-65
2023/04/10 11:17:51;;;;;;;5.60;2.20;;;;;;;18.25;35.44;99756.71;77777;1303;3049883;-65
2023/04/10 11:20:27;;;;;;;4.30;2.20;;;;;;;18.40;35.17;99754.66;77808;1303;3052635;-65
2023/04/10 11:23:12;;;;;;;4.00;2.10;;;;;;;18.52;34.71;99749.38;78458;1303;3011633;-64
2023/04/10 11:25:51;;;;;;;5.70;2.20;;;;;;;18.55;34.59;99747.30;77780;1304;3054534;-66
2023/04/10 11:28:31;;;;;;;6.50;2.10;;;;;;;18.42;34.35;99747.77;77877;1303;3068260;-61
2023/04/10 11:31:18;;;;;;;7.70;1.80;;;;;;;18.49;34.62;99740.23;77938;1299;3052433;-65
2023/04/10 11:34:06;;;;;;;10.20;2.60;;;;;;;18.52;34.76;99736.08;77864;1300;3056895;-65
2023/04/10 11:36:38;;;;;;;5.20;2.00;;;;;;;18.50;34.41;99734.26;77996;1301;3049728;-66
2023/04/10 11:39:11;;;;;;;3.10;2.10;;;;;;;18.71;34.60;99739.30;79066;1303;3012689;-64
2023/04/10 11:41:45;;;;;;;7.00;2.60;;;;;;;18.85;34.28;99734.83;78038;1303;3050319;-62
2023/04/10 11:44:14;;;;;;;5.90;2.00;;;;;;;18.95;33.50;99729.95;79055;1301;3011878;-62
2023/04/10 11:46:46;;;;;;;6.70;1.90;;;;;;;19.16;33.65;99722.23;77872;1303;3052760;-62